Terminal Aerodrome Forecast
Issued by NWS Midland/Odessa, TX

Home | Current Version | Previous Version | Text Only | Print | Product List | Glossary On
Versions: 1 2 3 4 5 6 7 8 9 10 11 12 13 14 15 16 17 18 19
000
FTUS44 KMAF 211700
TAFMAF
TAF
KMAF 211735Z 2118/2218 15009KT P6SM OVC060
     FM220300 14009KT 5SM -SHRA BKN030 OVC060
     FM221200 16008KT P6SM BKN050=

USA.gov is the U.S. government's official web portal to all federal, state and local government web resources and services.